sensor_id;sensor_type;location;lat;lon;timestamp;P1;durP1;ratioP1;P2;durP2;ratioP2
25437;SDS011;13364;49.084;9.978;2023-07-31T00:01:45;4.93;;;2.05;;
25437;SDS011;13364;49.084;9.978;2023-07-31T00:04:12;5.40;;;1.90;;
25437;SDS011;13364;49.084;9.978;2023-07-31T00:06:39;3.63;;;1.92;;
25437;SDS011;13364;49.084;9.978;2023-07-31T00:09:08;5.05;;;1.98;;
25437;SDS011;13364;49.084;9.978;2023-07-31T00:11:35;2.58;;;1.73;;
25437;SDS011;13364;49.084;9.978;2023-07-31T00:14:02;4.97;;;1.83;;
25437;SDS011;13364;49.084;9.978;2023-07-31T00:16:29;8.05;;;2.00;;
25437;SDS011;13364;49.084;9.978;2023-07-31T00:18:56;3.63;;;1.80;;
25437;SDS011;13364;49.084;9.978;2023-07-31T00:21:23;4.75;;;1.58;;
25437;SDS011;13364;49.084;9.978;2023-07-31T00:23:50;4.88;;;2.10;;
25437;SDS011;13364;49.084;9.978;2023-07-31T00:26:17;4.50;;;2.05;;
25437;SDS011;13364;49.084;9.978;2023-07-31T00:28:44;5.38;;;1.77;;
25437;SDS011;13364;49.084;9.978;2023-07-31T00:31:13;4.95;;;1.58;;
25437;SDS011;13364;49.084;9.978;2023-07-31T00:33:40;6.28;;;2.35;;
25437;SDS011;13364;49.084;9.978;2023-07-31T00:36:07;4.05;;;1.70;;
25437;SDS011;13364;49.084;9.978;2023-07-31T00:38:34;5.70;;;2.40;;
25437;SDS011;13364;49.084;9.978;2023-07-31T00:41:01;3.88;;;1.70;;
25437;SDS011;13364;49.084;9.978;2023-07-31T00:43:28;5.63;;;2.45;;
25437;SDS011;13364;49.084;9.978;2023-07-31T00:45:55;4.03;;;1.90;;
25437;SDS011;13364;49.084;9.978;2023-07-31T00:48:24;8.75;;;2.10;;
25437;SDS011;13364;49.084;9.978;2023-07-31T00:50:51;4.00;;;1.70;;
25437;SDS011;13364;49.084;9.978;2023-07-31T00:53:19;4.72;;;2.10;;
25437;SDS011;13364;49.084;9.978;2023-07-31T00:55:49;3.60;;;1.80;;
25437;SDS011;13364;49.084;9.978;2023-07-31T00:58:16;5.53;;;2.30;;
25437;SDS011;13364;49.084;9.978;2023-07-31T01:00:43;4.93;;;2.40;;
25437;SDS011;13364;49.084;9.978;2023-07-31T01:03:11;3.92;;;2.03;;
25437;SDS011;13364;49.084;9.978;2023-07-31T01:11:00;3.88;;;2.00;;
25437;SDS011;13364;49.084;9.978;2023-07-31T01:13:34;4.40;;;2.05;;
25437;SDS011;13364;49.084;9.978;2023-07-31T01:16:02;5.45;;;2.47;;
25437;SDS011;13364;49.084;9.978;2023-07-31T01:18:29;8.35;;;2.20;;
25437;SDS011;13364;49.084;9.978;2023-07-31T01:26:44;4.93;;;1.85;;
25437;SDS011;13364;49.084;9.978;2023-07-31T01:31:48;6.28;;;2.00;;
25437;SDS011;13364;49.084;9.978;2023-07-31T01:34:19;4.45;;;1.90;;
25437;SDS011;13364;49.084;9.978;2023-07-31T01:36:48;4.50;;;2.03;;
25437;SDS011;13364;49.084;9.978;2023-07-31T01:39:15;7.43;;;2.08;;
25437;SDS011;13364;49.084;9.978;2023-07-31T01:41:42;3.55;;;1.90;;
25437;SDS011;13364;49.084;9.978;2023-07-31T01:44:10;4.38;;;1.90;;
25437;SDS011;13364;49.084;9.978;2023-07-31T01:46:37;3.63;;;2.05;;
25437;SDS011;13364;49.084;9.978;2023-07-31T01:49:05;4.28;;;1.95;;
25437;SDS011;13364;49.084;9.978;2023-07-31T01:51:32;5.13;;;2.10;;
25437;SDS011;13364;49.084;9.978;2023-07-31T01:57:19;4.47;;;1.70;;
25437;SDS011;13364;49.084;9.978;2023-07-31T01:59:46;3.20;;;1.88;;
25437;SDS011;13364;49.084;9.978;2023-07-31T02:02:13;3.75;;;2.08;;
25437;SDS011;13364;49.084;9.978;2023-07-31T02:04:40;7.43;;;1.75;;
25437;SDS011;13364;49.084;9.978;2023-07-31T02:07:07;3.70;;;1.80;;
25437;SDS011;13364;49.084;9.978;2023-07-31T02:09:34;4.43;;;2.00;;
25437;SDS011;13364;49.084;9.978;2023-07-31T02:12:01;5.65;;;2.00;;
25437;SDS011;13364;49.084;9.978;2023-07-31T02:14:28;4.75;;;2.30;;
25437;SDS011;13364;49.084;9.978;2023-07-31T02:16:55;4.47;;;2.25;;
25437;SDS011;13364;49.084;9.978;2023-07-31T02:19:24;9.73;;;2.20;;
25437;SDS011;13364;49.084;9.978;2023-07-31T02:21:51;4.15;;;1.90;;
25437;SDS011;13364;49.084;9.978;2023-07-31T02:24:18;2.85;;;1.70;;
25437;SDS011;13364;49.084;9.978;2023-07-31T02:26:45;6.85;;;2.50;;
25437;SDS011;13364;49.084;9.978;2023-07-31T02:29:13;3.58;;;2.00;;
25437;SDS011;13364;49.084;9.978;2023-07-31T02:31:40;6.85;;;2.28;;
25437;SDS011;13364;49.084;9.978;2023-07-31T02:34:07;4.35;;;1.88;;
25437;SDS011;13364;49.084;9.978;2023-07-31T02:36:34;7.05;;;2.30;;
25437;SDS011;13364;49.084;9.978;2023-07-31T02:39:01;3.65;;;1.70;;
25437;SDS011;13364;49.084;9.978;2023-07-31T02:41:28;6.25;;;2.20;;
25437;SDS011;13364;49.084;9.978;2023-07-31T02:43:55;5.45;;;2.22;;
25437;SDS011;13364;49.084;9.978;2023-07-31T02:46:22;8.07;;;2.15;;
25437;SDS011;13364;49.084;9.978;2023-07-31T02:48:51;6.32;;;2.33;;
25437;SDS011;13364;49.084;9.978;2023-07-31T02:51:19;4.63;;;1.90;;
25437;SDS011;13364;49.084;9.978;2023-07-31T02:53:47;6.60;;;2.22;;
25437;SDS011;13364;49.084;9.978;2023-07-31T02:56:15;6.30;;;2.25;;
25437;SDS011;13364;49.084;9.978;2023-07-31T02:58:42;1.85;;;1.60;;
25437;SDS011;13364;49.084;9.978;2023-07-31T03:01:09;4.72;;;2.17;;
25437;SDS011;13364;49.084;9.978;2023-07-31T03:03:36;4.80;;;1.80;;
25437;SDS011;13364;49.084;9.978;2023-07-31T03:06:03;4.05;;;2.20;;
25437;SDS011;13364;49.084;9.978;2023-07-31T03:08:30;4.63;;;1.70;;
25437;SDS011;13364;49.084;9.978;2023-07-31T03:10:57;4.07;;;1.85;;
25437;SDS011;13364;49.084;9.978;2023-07-31T03:13:24;4.68;;;2.30;;
25437;SDS011;13364;49.084;9.978;2023-07-31T03:15:51;4.10;;;2.03;;
25437;SDS011;13364;49.084;9.978;2023-07-31T03:18:19;4.20;;;2.17;;
25437;SDS011;13364;49.084;9.978;2023-07-31T03:20:46;6.40;;;2.17;;
25437;SDS011;13364;49.084;9.978;2023-07-31T03:23:13;4.88;;;1.95;;
25437;SDS011;13364;49.084;9.978;2023-07-31T03:25:41;4.70;;;1.90;;
25437;SDS011;13364;49.084;9.978;2023-07-31T03:28:21;8.02;;;2.47;;
25437;SDS011;13364;49.084;9.978;2023-07-31T03:30:48;6.88;;;2.40;;
25437;SDS011;13364;49.084;9.978;2023-07-31T03:33:16;4.70;;;1.75;;
25437;SDS011;13364;49.084;9.978;2023-07-31T03:35:43;3.85;;;2.15;;
25437;SDS011;13364;49.084;9.978;2023-07-31T03:38:10;3.22;;;1.90;;
25437;SDS011;13364;49.084;9.978;2023-07-31T03:40:38;5.68;;;1.83;;
25437;SDS011;13364;49.084;9.978;2023-07-31T03:43:05;4.15;;;1.77;;
25437;SDS011;13364;49.084;9.978;2023-07-31T03:45:32;3.90;;;1.98;;
25437;SDS011;13364;49.084;9.978;2023-07-31T03:47:59;5.57;;;1.98;;
25437;SDS011;13364;49.084;9.978;2023-07-31T03:50:26;6.93;;;2.30;;
25437;SDS011;13364;49.084;9.978;2023-07-31T03:52:53;2.55;;;1.90;;
25437;SDS011;13364;49.084;9.978;2023-07-31T03:55:20;3.95;;;2.10;;
25437;SDS011;13364;49.084;9.978;2023-07-31T03:57:50;3.67;;;2.20;;
25437;SDS011;13364;49.084;9.978;2023-07-31T04:00:17;4.68;;;1.80;;
25437;SDS011;13364;49.084;9.978;2023-07-31T04:02:44;5.13;;;2.80;;
25437;SDS011;13364;49.084;9.978;2023-07-31T04:05:11;3.65;;;1.83;;
25437;SDS011;13364;49.084;9.978;2023-07-31T04:07:39;2.88;;;1.67;;
25437;SDS011;13364;49.084;9.978;2023-07-31T04:10:06;4.00;;;2.17;;
25437;SDS011;13364;49.084;9.978;2023-07-31T04:15:03;2.22;;;2.03;;
25437;SDS011;13364;49.084;9.978;2023-07-31T04:17:30;5.75;;;2.33;;
25437;SDS011;13364;49.084;9.978;2023-07-31T04:19:57;3.58;;;2.05;;
25437;SDS011;13364;49.084;9.978;2023-07-31T04:22:24;2.47;;;1.98;;
25437;SDS011;13364;49.084;9.978;2023-07-31T04:24:51;4.35;;;1.95;;
25437;SDS011;13364;49.084;9.978;2023-07-31T04:27:18;7.65;;;2.30;;
25437;SDS011;13364;49.084;9.978;2023-07-31T04:29:45;3.40;;;1.80;;
25437;SDS011;13364;49.084;9.978;2023-07-31T04:32:14;4.60;;;2.17;;
25437;SDS011;13364;49.084;9.978;2023-07-31T04:34:43;4.78;;;1.90;;
25437;SDS011;13364;49.084;9.978;2023-07-31T04:37:10;5.15;;;1.83;;
25437;SDS011;13364;49.084;9.978;2023-07-31T04:39:37;3.85;;;2.35;;
25437;SDS011;13364;49.084;9.978;2023-07-31T04:42:05;4.55;;;2.00;;
25437;SDS011;13364;49.084;9.978;2023-07-31T04:44:32;4.18;;;2.00;;
25437;SDS011;13364;49.084;9.978;2023-07-31T04:46:59;1.95;;;1.70;;
25437;SDS011;13364;49.084;9.978;2023-07-31T04:49:27;5.70;;;2.10;;
25437;SDS011;13364;49.084;9.978;2023-07-31T04:51:54;4.90;;;2.03;;
25437;SDS011;13364;49.084;9.978;2023-07-31T04:54:21;5.30;;;2.03;;
25437;SDS011;13364;49.084;9.978;2023-07-31T04:56:51;3.63;;;1.83;;
25437;SDS011;13364;49.084;9.978;2023-07-31T04:59:19;5.93;;;2.00;;
25437;SDS011;13364;49.084;9.978;2023-07-31T05:01:46;5.38;;;2.50;;
25437;SDS011;13364;49.084;9.978;2023-07-31T05:04:13;4.43;;;2.03;;
25437;SDS011;13364;49.084;9.978;2023-07-31T05:06:41;8.23;;;2.33;;
25437;SDS011;13364;49.084;9.978;2023-07-31T05:09:08;3.13;;;2.15;;
25437;SDS011;13364;49.084;9.978;2023-07-31T05:11:35;4.93;;;1.90;;
25437;SDS011;13364;49.084;9.978;2023-07-31T05:14:03;3.58;;;1.98;;
25437;SDS011;13364;49.084;9.978;2023-07-31T05:16:30;4.90;;;2.35;;
25437;SDS011;13364;49.084;9.978;2023-07-31T05:18:57;4.28;;;2.30;;
25437;SDS011;13364;49.084;9.978;2023-07-31T05:21:24;5.57;;;2.45;;
25437;SDS011;13364;49.084;9.978;2023-07-31T05:23:51;5.78;;;2.22;;
25437;SDS011;13364;49.084;9.978;2023-07-31T05:26:18;3.70;;;2.20;;
25437;SDS011;13364;49.084;9.978;2023-07-31T05:28:45;5.10;;;2.45;;
25437;SDS011;13364;49.084;9.978;2023-07-31T05:31:12;4.55;;;1.77;;
25437;SDS011;13364;49.084;9.978;2023-07-31T05:33:39;3.78;;;2.05;;
25437;SDS011;13364;49.084;9.978;2023-07-31T05:36:06;3.88;;;2.22;;
25437;SDS011;13364;49.084;9.978;2023-07-31T05:38:33;5.03;;;2.08;;
25437;SDS011;13364;49.084;9.978;2023-07-31T05:41:01;3.70;;;2.40;;
25437;SDS011;13364;49.084;9.978;2023-07-31T05:43:28;4.82;;;2.20;;
25437;SDS011;13364;49.084;9.978;2023-07-31T05:45:55;3.45;;;1.77;;
25437;SDS011;13364;49.084;9.978;2023-07-31T05:48:22;4.90;;;1.77;;
25437;SDS011;13364;49.084;9.978;2023-07-31T05:50:49;4.40;;;1.88;;
25437;SDS011;13364;49.084;9.978;2023-07-31T05:53:16;5.97;;;2.30;;
25437;SDS011;13364;49.084;9.978;2023-07-31T05:55:43;5.07;;;1.98;;
25437;SDS011;13364;49.084;9.978;2023-07-31T05:58:10;5.55;;;2.10;;
25437;SDS011;13364;49.084;9.978;2023-07-31T06:00:37;4.43;;;2.20;;
25437;SDS011;13364;49.084;9.978;2023-07-31T06:03:04;4.03;;;2.40;;
25437;SDS011;13364;49.084;9.978;2023-07-31T06:05:31;4.47;;;2.15;;
25437;SDS011;13364;49.084;9.978;2023-07-31T06:07:59;4.03;;;2.00;;
25437;SDS011;13364;49.084;9.978;2023-07-31T06:10:26;2.75;;;1.83;;
25437;SDS011;13364;49.084;9.978;2023-07-31T06:12:53;7.22;;;2.30;;
25437;SDS011;13364;49.084;9.978;2023-07-31T06:15:20;5.80;;;2.30;;
25437;SDS011;13364;49.084;9.978;2023-07-31T06:17:47;4.28;;;2.00;;
25437;SDS011;13364;49.084;9.978;2023-07-31T06:20:14;5.60;;;2.53;;
25437;SDS011;13364;49.084;9.978;2023-07-31T06:22:41;5.60;;;2.38;;
25437;SDS011;13364;49.084;9.978;2023-07-31T06:25:08;5.13;;;2.08;;
25437;SDS011;13364;49.084;9.978;2023-07-31T06:27:40;4.45;;;2.40;;
25437;SDS011;13364;49.084;9.978;2023-07-31T06:30:07;6.38;;;2.40;;
25437;SDS011;13364;49.084;9.978;2023-07-31T06:32:34;2.70;;;2.28;;
25437;SDS011;13364;49.084;9.978;2023-07-31T06:35:02;2.72;;;1.90;;
25437;SDS011;13364;49.084;9.978;2023-07-31T06:37:29;5.75;;;2.08;;
25437;SDS011;13364;49.084;9.978;2023-07-31T06:39:57;6.68;;;2.58;;
25437;SDS011;13364;49.084;9.978;2023-07-31T06:42:24;7.97;;;2.25;;
25437;SDS011;13364;49.084;9.978;2023-07-31T06:44:51;2.95;;;2.15;;
25437;SDS011;13364;49.084;9.978;2023-07-31T06:47:19;3.55;;;2.10;;
25437;SDS011;13364;49.084;9.978;2023-07-31T06:49:46;6.55;;;2.40;;
25437;SDS011;13364;49.084;9.978;2023-07-31T06:52:13;6.45;;;2.20;;
25437;SDS011;13364;49.084;9.978;2023-07-31T06:54:40;5.43;;;2.03;;
25437;SDS011;13364;49.084;9.978;2023-07-31T06:57:07;3.22;;;2.13;;
25437;SDS011;13364;49.084;9.978;2023-07-31T06:59:34;3.47;;;2.03;;
25437;SDS011;13364;49.084;9.978;2023-07-31T07:02:01;6.28;;;2.00;;
25437;SDS011;13364;49.084;9.978;2023-07-31T07:04:32;4.13;;;2.00;;
25437;SDS011;13364;49.084;9.978;2023-07-31T07:06:59;5.68;;;2.15;;
25437;SDS011;13364;49.084;9.978;2023-07-31T07:09:26;6.78;;;2.28;;
25437;SDS011;13364;49.084;9.978;2023-07-31T07:11:53;8.80;;;2.78;;
25437;SDS011;13364;49.084;9.978;2023-07-31T07:14:20;5.85;;;2.20;;
25437;SDS011;13364;49.084;9.978;2023-07-31T07:16:50;6.30;;;2.30;;
25437;SDS011;13364;49.084;9.978;2023-07-31T07:21:45;5.60;;;2.50;;
25437;SDS011;13364;49.084;9.978;2023-07-31T07:24:12;3.47;;;2.17;;
25437;SDS011;13364;49.084;9.978;2023-07-31T07:26:39;4.50;;;2.60;;
25437;SDS011;13364;49.084;9.978;2023-07-31T07:29:08;5.90;;;2.63;;
25437;SDS011;13364;49.084;9.978;2023-07-31T07:31:37;8.10;;;2.50;;
25437;SDS011;13364;49.084;9.978;2023-07-31T07:34:04;4.88;;;2.38;;
25437;SDS011;13364;49.084;9.978;2023-07-31T07:36:31;4.82;;;2.45;;
25437;SDS011;13364;49.084;9.978;2023-07-31T07:38:59;11.10;;;3.10;;
25437;SDS011;13364;49.084;9.978;2023-07-31T07:41:26;5.32;;;2.10;;
25437;SDS011;13364;49.084;9.978;2023-07-31T07:43:53;8.25;;;2.78;;
25437;SDS011;13364;49.084;9.978;2023-07-31T07:46:20;3.78;;;2.42;;
25437;SDS011;13364;49.084;9.978;2023-07-31T07:48:47;9.13;;;2.80;;
25437;SDS011;13364;49.084;9.978;2023-07-31T07:51:14;5.38;;;2.53;;
25437;SDS011;13364;49.084;9.978;2023-07-31T07:53:41;6.20;;;2.40;;
25437;SDS011;13364;49.084;9.978;2023-07-31T07:56:08;5.43;;;2.53;;
25437;SDS011;13364;49.084;9.978;2023-07-31T07:58:35;4.85;;;2.40;;
25437;SDS011;13364;49.084;9.978;2023-07-31T08:01:02;4.63;;;2.55;;
25437;SDS011;13364;49.084;9.978;2023-07-31T08:03:29;5.00;;;2.63;;
25437;SDS011;13364;49.084;9.978;2023-07-31T08:06:00;4.43;;;2.08;;
25437;SDS011;13364;49.084;9.978;2023-07-31T08:08:28;5.60;;;2.42;;
25437;SDS011;13364;49.084;9.978;2023-07-31T08:10:55;6.72;;;2.55;;
25437;SDS011;13364;49.084;9.978;2023-07-31T08:13:22;4.88;;;2.58;;
25437;SDS011;13364;49.084;9.978;2023-07-31T08:15:49;7.43;;;2.72;;
25437;SDS011;13364;49.084;9.978;2023-07-31T08:18:16;3.58;;;2.47;;
25437;SDS011;13364;49.084;9.978;2023-07-31T08:20:44;7.20;;;2.67;;
25437;SDS011;13364;49.084;9.978;2023-07-31T08:23:11;7.10;;;2.53;;
25437;SDS011;13364;49.084;9.978;2023-07-31T08:25:39;5.20;;;2.53;;
25437;SDS011;13364;49.084;9.978;2023-07-31T08:28:06;6.05;;;2.45;;
25437;SDS011;13364;49.084;9.978;2023-07-31T08:30:33;5.30;;;2.38;;
25437;SDS011;13364;49.084;9.978;2023-07-31T08:33:00;5.60;;;2.47;;
25437;SDS011;13364;49.084;9.978;2023-07-31T08:35:27;4.22;;;2.50;;
25437;SDS011;13364;49.084;9.978;2023-07-31T08:37:55;4.70;;;2.55;;
25437;SDS011;13364;49.084;9.978;2023-07-31T08:40:22;11.07;;;2.63;;
25437;SDS011;13364;49.084;9.978;2023-07-31T08:42:49;5.45;;;2.70;;
25437;SDS011;13364;49.084;9.978;2023-07-31T08:45:19;4.97;;;2.20;;
25437;SDS011;13364;49.084;9.978;2023-07-31T08:47:48;5.57;;;2.47;;
25437;SDS011;13364;49.084;9.978;2023-07-31T08:50:18;7.07;;;2.60;;
25437;SDS011;13364;49.084;9.978;2023-07-31T09:05:19;7.60;;;3.05;;
25437;SDS011;13364;49.084;9.978;2023-07-31T09:07:48;6.47;;;2.60;;
25437;SDS011;13364;49.084;9.978;2023-07-31T09:10:17;3.47;;;2.33;;
25437;SDS011;13364;49.084;9.978;2023-07-31T09:12:44;6.13;;;2.65;;
25437;SDS011;13364;49.084;9.978;2023-07-31T09:15:13;5.57;;;2.35;;
25437;SDS011;13364;49.084;9.978;2023-07-31T09:18:01;5.75;;;2.70;;
25437;SDS011;13364;49.084;9.978;2023-07-31T09:20:29;6.80;;;2.70;;
25437;SDS011;13364;49.084;9.978;2023-07-31T09:22:56;5.25;;;2.42;;
25437;SDS011;13364;49.084;9.978;2023-07-31T09:25:24;5.28;;;2.65;;
25437;SDS011;13364;49.084;9.978;2023-07-31T09:27:58;8.10;;;2.63;;
25437;SDS011;13364;49.084;9.978;2023-07-31T09:30:27;4.38;;;2.70;;
25437;SDS011;13364;49.084;9.978;2023-07-31T09:33:01;4.68;;;2.20;;
25437;SDS011;13364;49.084;9.978;2023-07-31T09:35:30;6.68;;;2.50;;
25437;SDS011;13364;49.084;9.978;2023-07-31T09:37:59;4.63;;;2.50;;
25437;SDS011;13364;49.084;9.978;2023-07-31T09:40:30;5.68;;;2.42;;
25437;SDS011;13364;49.084;9.978;2023-07-31T09:42:59;4.72;;;2.30;;
25437;SDS011;13364;49.084;9.978;2023-07-31T09:45:29;5.13;;;2.47;;
25437;SDS011;13364;49.084;9.978;2023-07-31T09:48:07;8.52;;;2.55;;
25437;SDS011;13364;49.084;9.978;2023-07-31T09:50:41;4.55;;;2.58;;
25437;SDS011;13364;49.084;9.978;2023-07-31T09:53:09;5.72;;;2.30;;
25437;SDS011;13364;49.084;9.978;2023-07-31T09:55:37;6.57;;;2.75;;
25437;SDS011;13364;49.084;9.978;2023-07-31T09:58:08;3.47;;;2.15;;
25437;SDS011;13364;49.084;9.978;2023-07-31T10:00:38;5.25;;;2.33;;
25437;SDS011;13364;49.084;9.978;2023-07-31T10:03:09;7.25;;;2.55;;
25437;SDS011;13364;49.084;9.978;2023-07-31T10:08:06;3.63;;;2.38;;
25437;SDS011;13364;49.084;9.978;2023-07-31T10:10:36;6.22;;;2.67;;
25437;SDS011;13364;49.084;9.978;2023-07-31T10:13:04;6.07;;;2.40;;
25437;SDS011;13364;49.084;9.978;2023-07-31T10:15:32;4.30;;;2.20;;
25437;SDS011;13364;49.084;9.978;2023-07-31T10:18:00;5.05;;;3.10;;
25437;SDS011;13364;49.084;9.978;2023-07-31T10:20:29;6.68;;;2.67;;
25437;SDS011;13364;49.084;9.978;2023-07-31T10:22:56;6.57;;;2.92;;
25437;SDS011;13364;49.084;9.978;2023-07-31T10:25:28;4.78;;;2.33;;
25437;SDS011;13364;49.084;9.978;2023-07-31T10:28:34;7.05;;;2.78;;
25437;SDS011;13364;49.084;9.978;2023-07-31T10:31:19;6.45;;;2.55;;
25437;SDS011;13364;49.084;9.978;2023-07-31T10:34:11;7.50;;;2.80;;
25437;SDS011;13364;49.084;9.978;2023-07-31T10:36:39;5.97;;;2.10;;
25437;SDS011;13364;49.084;9.978;2023-07-31T10:39:06;5.93;;;2.40;;
25437;SDS011;13364;49.084;9.978;2023-07-31T10:42:08;6.57;;;2.47;;
25437;SDS011;13364;49.084;9.978;2023-07-31T10:44:36;5.30;;;2.47;;
25437;SDS011;13364;49.084;9.978;2023-07-31T10:47:04;6.25;;;2.33;;
25437;SDS011;13364;49.084;9.978;2023-07-31T10:49:31;7.15;;;2.45;;
25437;SDS011;13364;49.084;9.978;2023-07-31T10:51:59;4.72;;;2.25;;
25437;SDS011;13364;49.084;9.978;2023-07-31T10:54:25;5.40;;;2.10;;
25437;SDS011;13364;49.084;9.978;2023-07-31T10:56:54;6.20;;;2.47;;
25437;SDS011;13364;49.084;9.978;2023-07-31T10:59:25;4.60;;;2.60;;
25437;SDS011;13364;49.084;9.978;2023-07-31T11:01:55;12.05;;;2.35;;
25437;SDS011;13364;49.084;9.978;2023-07-31T11:04:29;4.30;;;2.20;;
25437;SDS011;13364;49.084;9.978;2023-07-31T11:06:59;6.20;;;2.72;;
25437;SDS011;13364;49.084;9.978;2023-07-31T11:11:59;5.95;;;2.58;;
25437;SDS011;13364;49.084;9.978;2023-07-31T11:14:26;4.82;;;2.42;;
25437;SDS011;13364;49.084;9.978;2023-07-31T11:16:53;4.25;;;2.40;;
25437;SDS011;13364;49.084;9.978;2023-07-31T11:19:21;4.93;;;2.45;;
25437;SDS011;13364;49.084;9.978;2023-07-31T11:21:52;6.05;;;2.53;;
25437;SDS011;13364;49.084;9.978;2023-07-31T11:24:20;5.03;;;2.50;;
25437;SDS011;13364;49.084;9.978;2023-07-31T11:26:48;5.85;;;2.70;;
25437;SDS011;13364;49.084;9.978;2023-07-31T11:29:20;7.13;;;2.50;;
25437;SDS011;13364;49.084;9.978;2023-07-31T11:31:47;7.60;;;2.85;;
25437;SDS011;13364;49.084;9.978;2023-07-31T11:34:15;3.78;;;2.63;;
25437;SDS011;13364;49.084;9.978;2023-07-31T11:36:53;3.45;;;2.20;;
25437;SDS011;13364;49.084;9.978;2023-07-31T11:39:22;5.78;;;2.42;;
25437;SDS011;13364;49.084;9.978;2023-07-31T11:41:49;4.35;;;2.05;;
25437;SDS011;13364;49.084;9.978;2023-07-31T11:44:16;4.75;;;2.67;;
25437;SDS011;13364;49.084;9.978;2023-07-31T11:51:13;3.63;;;2.60;;
25437;SDS011;13364;49.084;9.978;2023-07-31T11:53:45;5.15;;;2.95;;
25437;SDS011;13364;49.084;9.978;2023-07-31T11:56:18;4.75;;;2.63;;
25437;SDS011;13364;49.084;9.978;2023-07-31T11:58:55;5.23;;;2.53;;
25437;SDS011;13364;49.084;9.978;2023-07-31T12:01:25;5.82;;;2.38;;
25437;SDS011;13364;49.084;9.978;2023-07-31T12:03:54;5.22;;;2.65;;
25437;SDS011;13364;49.084;9.978;2023-07-31T12:06:32;7.82;;;3.08;;
25437;SDS011;13364;49.084;9.978;2023-07-31T12:09:01;5.90;;;2.75;;
25437;SDS011;13364;49.084;9.978;2023-07-31T12:13:57;5.28;;;2.60;;
25437;SDS011;13364;49.084;9.978;2023-07-31T12:16:25;6.63;;;2.97;;
25437;SDS011;13364;49.084;9.978;2023-07-31T12:18:55;5.57;;;2.80;;
25437;SDS011;13364;49.084;9.978;2023-07-31T12:21:22;4.50;;;2.47;;
25437;SDS011;13364;49.084;9.978;2023-07-31T12:23:51;6.75;;;2.70;;
25437;SDS011;13364;49.084;9.978;2023-07-31T12:26:21;4.82;;;2.83;;
25437;SDS011;13364;49.084;9.978;2023-07-31T12:28:50;3.95;;;2.38;;
25437;SDS011;13364;49.084;9.978;2023-07-31T12:31:18;4.82;;;2.53;;
25437;SDS011;13364;49.084;9.978;2023-07-31T12:33:48;5.68;;;2.70;;
25437;SDS011;13364;49.084;9.978;2023-07-31T12:36:17;3.53;;;2.60;;
25437;SDS011;13364;49.084;9.978;2023-07-31T12:38:51;6.97;;;2.92;;
25437;SDS011;13364;49.084;9.978;2023-07-31T12:41:30;6.10;;;2.70;;
25437;SDS011;13364;49.084;9.978;2023-07-31T12:43:57;4.72;;;2.65;;
25437;SDS011;13364;49.084;9.978;2023-07-31T12:46:24;5.50;;;3.00;;
25437;SDS011;13364;49.084;9.978;2023-07-31T12:48:51;7.22;;;3.03;;
25437;SDS011;13364;49.084;9.978;2023-07-31T12:54:17;5.75;;;2.72;;
25437;SDS011;13364;49.084;9.978;2023-07-31T12:56:44;6.60;;;3.22;;
25437;SDS011;13364;49.084;9.978;2023-07-31T12:59:11;3.60;;;2.50;;
25437;SDS011;13364;49.084;9.978;2023-07-31T13:01:38;4.78;;;2.50;;
25437;SDS011;13364;49.084;9.978;2023-07-31T13:07:32;5.50;;;3.00;;
25437;SDS011;13364;49.084;9.978;2023-07-31T13:09:59;5.88;;;2.63;;
25437;SDS011;13364;49.084;9.978;2023-07-31T13:12:26;7.50;;;2.80;;
25437;SDS011;13364;49.084;9.978;2023-07-31T13:15:08;5.15;;;2.45;;
25437;SDS011;13364;49.084;9.978;2023-07-31T13:17:35;5.68;;;3.03;;
25437;SDS011;13364;49.084;9.978;2023-07-31T13:20:03;4.22;;;2.65;;
25437;SDS011;13364;49.084;9.978;2023-07-31T13:22:31;7.05;;;2.70;;
25437;SDS011;13364;49.084;9.978;2023-07-31T13:24:58;6.63;;;2.58;;
25437;SDS011;13364;49.084;9.978;2023-07-31T13:27:30;6.30;;;2.60;;
25437;SDS011;13364;49.084;9.978;2023-07-31T13:29:57;6.88;;;2.85;;
25437;SDS011;13364;49.084;9.978;2023-07-31T13:32:24;5.35;;;3.22;;
25437;SDS011;13364;49.084;9.978;2023-07-31T13:34:52;5.00;;;2.97;;
25437;SDS011;13364;49.084;9.978;2023-07-31T13:37:19;6.35;;;3.03;;
25437;SDS011;13364;49.084;9.978;2023-07-31T13:39:46;8.52;;;2.83;;
25437;SDS011;13364;49.084;9.978;2023-07-31T13:42:14;7.53;;;2.70;;
25437;SDS011;13364;49.084;9.978;2023-07-31T13:44:42;4.47;;;2.70;;
25437;SDS011;13364;49.084;9.978;2023-07-31T13:47:09;6.18;;;3.03;;
25437;SDS011;13364;49.084;9.978;2023-07-31T13:49:36;5.40;;;2.67;;
25437;SDS011;13364;49.084;9.978;2023-07-31T13:54:58;6.65;;;2.92;;
25437;SDS011;13364;49.084;9.978;2023-07-31T13:57:25;6.13;;;3.08;;
25437;SDS011;13364;49.084;9.978;2023-07-31T13:59:52;6.15;;;3.15;;
25437;SDS011;13364;49.084;9.978;2023-07-31T14:05:13;8.40;;;2.95;;
25437;SDS011;13364;49.084;9.978;2023-07-31T14:07:40;5.78;;;2.88;;
25437;SDS011;13364;49.084;9.978;2023-07-31T14:10:08;5.15;;;2.83;;
25437;SDS011;13364;49.084;9.978;2023-07-31T14:12:35;6.60;;;2.50;;
25437;SDS011;13364;49.084;9.978;2023-07-31T14:15:09;5.97;;;2.97;;
25437;SDS011;13364;49.084;9.978;2023-07-31T14:17:36;5.10;;;3.20;;
25437;SDS011;13364;49.084;9.978;2023-07-31T14:20:04;5.47;;;3.13;;
25437;SDS011;13364;49.084;9.978;2023-07-31T14:22:32;7.32;;;3.03;;
25437;SDS011;13364;49.084;9.978;2023-07-31T14:25:01;6.93;;;3.65;;
25437;SDS011;13364;49.084;9.978;2023-07-31T14:27:28;5.35;;;2.90;;
25437;SDS011;13364;49.084;9.978;2023-07-31T14:29:55;4.47;;;2.55;;
25437;SDS011;13364;49.084;9.978;2023-07-31T14:32:23;6.22;;;2.70;;
25437;SDS011;13364;49.084;9.978;2023-07-31T14:40:14;4.97;;;3.10;;
25437;SDS011;13364;49.084;9.978;2023-07-31T14:42:41;8.68;;;3.03;;
25437;SDS011;13364;49.084;9.978;2023-07-31T14:45:08;9.27;;;3.30;;
25437;SDS011;13364;49.084;9.978;2023-07-31T14:47:36;7.57;;;2.92;;
25437;SDS011;13364;49.084;9.978;2023-07-31T14:50:03;5.40;;;2.90;;
25437;SDS011;13364;49.084;9.978;2023-07-31T14:52:31;5.88;;;2.67;;
25437;SDS011;13364;49.084;9.978;2023-07-31T14:54:58;5.55;;;3.00;;
25437;SDS011;13364;49.084;9.978;2023-07-31T14:57:25;5.85;;;3.00;;
25437;SDS011;13364;49.084;9.978;2023-07-31T14:59:53;5.15;;;2.90;;
25437;SDS011;13364;49.084;9.978;2023-07-31T15:02:20;3.90;;;2.83;;
25437;SDS011;13364;49.084;9.978;2023-07-31T15:04:51;7.63;;;2.88;;
25437;SDS011;13364;49.084;9.978;2023-07-31T15:07:19;6.03;;;3.35;;
25437;SDS011;13364;49.084;9.978;2023-07-31T15:09:46;7.88;;;2.90;;
25437;SDS011;13364;49.084;9.978;2023-07-31T15:12:13;5.72;;;2.92;;
25437;SDS011;13364;49.084;9.978;2023-07-31T15:14:40;4.45;;;3.15;;
25437;SDS011;13364;49.084;9.978;2023-07-31T15:17:07;6.80;;;3.13;;
25437;SDS011;13364;49.084;9.978;2023-07-31T15:19:34;4.22;;;2.83;;
25437;SDS011;13364;49.084;9.978;2023-07-31T15:22:03;7.78;;;2.88;;
25437;SDS011;13364;49.084;9.978;2023-07-31T15:24:41;5.80;;;2.80;;
25437;SDS011;13364;49.084;9.978;2023-07-31T15:27:11;5.32;;;2.70;;
25437;SDS011;13364;49.084;9.978;2023-07-31T15:29:38;4.22;;;2.38;;
25437;SDS011;13364;49.084;9.978;2023-07-31T15:32:06;4.65;;;3.17;;
25437;SDS011;13364;49.084;9.978;2023-07-31T15:34:33;4.22;;;2.72;;
25437;SDS011;13364;49.084;9.978;2023-07-31T15:37:00;6.10;;;3.08;;
25437;SDS011;13364;49.084;9.978;2023-07-31T15:39:27;6.30;;;3.33;;
25437;SDS011;13364;49.084;9.978;2023-07-31T15:41:54;4.97;;;2.67;;
25437;SDS011;13364;49.084;9.978;2023-07-31T15:44:22;4.60;;;2.90;;
25437;SDS011;13364;49.084;9.978;2023-07-31T15:46:49;8.18;;;3.25;;
25437;SDS011;13364;49.084;9.978;2023-07-31T15:49:16;3.17;;;2.60;;
25437;SDS011;13364;49.084;9.978;2023-07-31T15:51:43;6.13;;;3.28;;
25437;SDS011;13364;49.084;9.978;2023-07-31T15:54:10;5.07;;;2.55;;
25437;SDS011;13364;49.084;9.978;2023-07-31T15:56:37;5.13;;;3.00;;
25437;SDS011;13364;49.084;9.978;2023-07-31T15:59:05;4.43;;;3.03;;